Time,TemperatureF,DewpointF,PressureIn,WindDirection,WindDirectionDegrees,WindSpeedMPH,WindSpeedGustMPH,Humidity,HourlyPrecipIn,Conditions,Clouds,dailyrainin,SoftwareType,DateUTC
2013-05-27 00:10:00,48.9,41.0,30.24,SE,126,0.0,2.0,74,0.00,,,0.00,weatherlink.com 1.10,2013-05-27 04:10:00,
2013-05-27 00:25:00,48.0,41.0,30.25,SE,143,0.0,0.0,76,0.00,,,0.00,weatherlink.com 1.10,2013-05-27 04:25:00,
2013-05-27 00:40:00,47.0,41.0,30.25,SE,141,0.0,1.0,79,0.00,,,0.00,weatherlink.com 1.10,2013-05-27 04:40:00,
2013-05-27 00:55:00,45.9,41.0,30.25,SE,141,0.0,1.0,82,0.00,,,0.00,weatherlink.com 1.10,2013-05-27 04:55:00,
2013-05-27 01:10:00,45.7,41.0,30.25,North,358,0.0,2.0,82,0.00,,,0.00,weatherlink.com 1.10,2013-05-27 05:10:00,
2013-05-27 01:25:00,45.2,41.0,30.26,NNE,12,1.0,1.0,84,0.00,,,0.00,weatherlink.com 1.10,2013-05-27 05:25:00,
2013-05-27 01:40:00,44.8,41.0,30.26,North,11,1.0,2.0,85,0.00,,,0.00,weatherlink.com 1.10,2013-05-27 05:40:00,
2013-05-27 01:55:00,44.4,40.0,30.26,NNW,346,0.0,1.0,85,0.00,,,0.00,weatherlink.com 1.10,2013-05-27 05:55:00,
2013-05-27 02:10:00,43.3,40.0,30.26,NW,315,0.0,1.0,87,0.00,,,0.00,weatherlink.com 1.10,2013-05-27 06:10:00,
2013-05-27 02:25:00,43.1,40.0,30.26,NNE,16,2.0,2.0,89,0.00,,,0.00,weatherlink.com 1.10,2013-05-27 06:25:00,
2013-05-27 02:40:00,43.0,40.0,30.26,NNE,16,0.0,1.0,88,0.00,,,0.00,weatherlink.com 1.10,2013-05-27 06:40:00,
2013-05-27 02:55:00,42.9,40.0,30.26,West,271,0.0,2.0,88,0.00,,,0.00,weatherlink.com 1.10,2013-05-27 06:55:00,
2013-05-27 03:10:00,41.9,39.0,30.26,West,271,0.0,0.0,89,0.00,,,0.00,weatherlink.com 1.10,2013-05-27 07:10:00,
2013-05-27 03:25:00,41.3,38.0,30.26,West,271,0.0,0.0,89,0.00,,,0.00,weatherlink.com 1.10,2013-05-27 07:25:00,
2013-05-27 03:40:00,40.9,38.0,30.27,West,271,0.0,0.0,90,0.00,,,0.00,weatherlink.com 1.10,2013-05-27 07:40:00,
2013-05-27 03:55:00,40.9,39.0,30.27,West,271,0.0,1.0,91,0.00,,,0.00,weatherlink.com 1.10,2013-05-27 07:55:00,
2013-05-27 04:10:00,40.4,38.0,30.26,West,271,0.0,0.0,91,0.00,,,0.00,weatherlink.com 1.10,2013-05-27 08:10:00,
2013-05-27 04:25:00,40.3,38.0,30.26,West,271,0.0,0.0,92,0.00,,,0.00,weatherlink.com 1.10,2013-05-27 08:25:00,
2013-05-27 04:40:00,39.9,38.0,30.27,West,271,0.0,1.0,92,0.00,,,0.00,weatherlink.com 1.10,2013-05-27 08:40:00,
2013-05-27 04:56:00,39.4,38.0,30.27,West,271,0.0,0.0,93,0.00,,,0.00,weatherlink.com 1.10,2013-05-27 08:56:00,
2013-05-27 05:10:00,39.3,38.0,30.27,West,271,0.0,1.0,93,0.00,,,0.00,weatherlink.com 1.10,2013-05-27 09:10:00,
2013-05-27 05:25:00,39.3,38.0,30.27,SSW,208,0.0,1.0,93,0.00,,,0.00,weatherlink.com 1.10,2013-05-27 09:25:00,
2013-05-27 05:40:00,39.3,38.0,30.27,ESE,108,0.0,1.0,93,0.00,,,0.00,weatherlink.com 1.10,2013-05-27 09:40:00,
2013-05-27 05:55:00,38.8,37.0,30.27,SSE,151,0.0,2.0,93,0.00,,,0.00,weatherlink.com 1.10,2013-05-27 09:55:00,
2013-05-27 06:10:00,39.5,38.0,30.27,West,271,0.0,1.0,93,0.00,,,0.00,weatherlink.com 1.10,2013-05-27 10:10:00,
2013-05-27 06:25:00,40.6,39.0,30.28,ESE,113,0.0,1.0,92,0.00,,,0.00,weatherlink.com 1.10,2013-05-27 10:25:00,
2013-05-27 06:40:00,43.3,40.0,30.28,SE,135,0.0,1.0,87,0.00,,,0.00,weatherlink.com 1.10,2013-05-27 10:40:00,
2013-05-27 06:56:00,45.5,41.0,30.28,SE,135,0.0,1.0,84,0.00,,,0.00,weatherlink.com 1.10,2013-05-27 10:56:00,
2013-05-27 07:11:00,46.2,41.0,30.29,NNE,16,0.0,1.0,83,0.00,,,0.00,weatherlink.com 1.10,2013-05-27 11:11:00,
2013-05-27 07:26:00,48.9,43.0,30.29,South,191,0.0,1.0,80,0.00,,,0.00,weatherlink.com 1.10,2013-05-27 11:26:00,
2013-05-27 07:41:00,51.1,43.0,30.29,SW,236,0.0,1.0,74,0.00,,,0.00,weatherlink.com 1.10,2013-05-27 11:41:00,
2013-05-27 07:56:00,52.0,43.0,30.29,SW,236,0.0,2.0,72,0.00,,,0.00,weatherlink.com 1.10,2013-05-27 11:56:00,
2013-05-27 08:11:00,53.4,43.0,30.30,South,169,1.0,4.0,69,0.00,,,0.00,weatherlink.com 1.10,2013-05-27 12:11:00,
2013-05-27 08:26:00,54.7,44.0,30.30,SE,145,2.0,3.0,68,0.00,,,0.00,weatherlink.com 1.10,2013-05-27 12:26:00,
2013-05-27 08:41:00,55.3,44.0,30.30,SE,136,0.0,3.0,66,0.00,,,0.00,weatherlink.com 1.10,2013-05-27 12:41:00,
2013-05-27 08:56:00,57.7,45.0,30.30,South,187,0.0,3.0,63,0.00,,,0.00,weatherlink.com 1.10,2013-05-27 12:56:00,
2013-05-27 09:11:00,58.5,43.0,30.30,SW,225,2.0,6.0,57,0.00,,,0.00,weatherlink.com 1.10,2013-05-27 13:11:00,
2013-05-27 09:26:00,60.2,43.0,30.30,WNW,298,1.0,6.0,53,0.00,,,0.00,weatherlink.com 1.10,2013-05-27 13:26:00,
2013-05-27 09:41:00,60.6,43.0,30.30,South,190,2.0,5.0,52,0.00,,,0.00,weatherlink.com 1.10,2013-05-27 13:41:00,
2013-05-27 09:56:00,62.1,41.0,30.30,SW,226,2.0,4.0,47,0.00,,,0.00,weatherlink.com 1.10,2013-05-27 13:56:00,
2013-05-27 10:11:00,63.5,41.0,30.30,SSW,197,6.0,8.0,44,0.00,,,0.00,weatherlink.com 1.10,2013-05-27 14:11:00,
2013-05-27 10:26:00,63.7,41.0,30.30,SE,132,3.0,7.0,43,0.00,,,0.00,weatherlink.com 1.10,2013-05-27 14:26:00,
2013-05-27 10:41:00,65.7,42.0,30.29,SSE,166,2.0,6.0,42,0.00,,,0.00,weatherlink.com 1.10,2013-05-27 14:41:00,
2013-05-27 10:56:00,65.5,41.0,30.29,East,97,1.0,7.0,41,0.00,,,0.00,weatherlink.com 1.10,2013-05-27 14:56:00,
2013-05-27 11:11:00,65.7,42.0,30.29,West,280,1.0,9.0,42,0.00,,,0.00,weatherlink.com 1.10,2013-05-27 15:11:00,
2013-05-27 11:26:00,66.9,40.0,30.28,West,259,1.0,8.0,38,0.00,,,0.00,weatherlink.com 1.10,2013-05-27 15:26:00,
2013-05-27 11:41:00,67.0,40.0,30.28,SW,219,1.0,8.0,38,0.00,,,0.00,weatherlink.com 1.10,2013-05-27 15:41:00,
2013-05-27 11:56:00,68.3,40.0,30.28,SSE,149,3.0,9.0,35,0.00,,,0.00,weatherlink.com 1.10,2013-05-27 15:56:00,
2013-05-27 12:11:00,67.9,38.0,30.28,West,267,3.0,8.0,33,0.00,,,0.00,weatherlink.com 1.10,2013-05-27 16:11:00,
2013-05-27 12:26:00,67.7,39.0,30.27,SW,225,3.0,4.0,35,0.00,,,0.00,weatherlink.com 1.10,2013-05-27 16:26:00,
2013-05-27 12:41:00,67.7,38.0,30.27,SSE,163,0.0,6.0,34,0.00,,,0.00,weatherlink.com 1.10,2013-05-27 16:41:00,
2013-05-27 12:56:00,67.3,39.0,30.27,South,169,8.0,9.0,36,0.00,,,0.00,weatherlink.com 1.10,2013-05-27 16:56:00,
2013-05-27 13:11:00,68.7,41.0,30.26,South,180,2.0,4.0,36,0.00,,,0.00,weatherlink.com 1.10,2013-05-27 17:11:00,
2013-05-27 13:26:00,68.6,40.0,30.26,South,179,3.0,8.0,35,0.00,,,0.00,weatherlink.com 1.10,2013-05-27 17:26:00,
2013-05-27 13:41:00,67.1,39.0,30.25,WNW,283,4.0,6.0,36,0.00,,,0.00,weatherlink.com 1.10,2013-05-27 17:41:00,
2013-05-27 13:56:00,67.1,39.0,30.25,South,188,1.0,6.0,36,0.00,,,0.00,weatherlink.com 1.10,2013-05-27 17:56:00,
2013-05-27 14:11:00,67.4,40.0,30.25,SSW,204,4.0,6.0,37,0.00,,,0.00,weatherlink.com 1.10,2013-05-27 18:11:00,
2013-05-27 14:26:00,66.9,42.0,30.25,SW,215,4.0,8.0,41,0.00,,,0.00,weatherlink.com 1.10,2013-05-27 18:26:00,
2013-05-27 14:41:00,67.6,42.0,30.24,SSE,148,7.0,7.0,39,0.00,,,0.00,weatherlink.com 1.10,2013-05-27 18:41:00,
2013-05-27 14:56:00,67.7,41.0,30.24,SW,226,8.0,12.0,38,0.00,,,0.00,weatherlink.com 1.10,2013-05-27 18:56:00,
2013-05-27 15:11:00,67.5,42.0,30.23,SSE,151,6.0,10.0,40,0.00,,,0.00,weatherlink.com 1.10,2013-05-27 19:11:00,
2013-05-27 15:26:00,67.5,42.0,30.23,SSE,155,4.0,8.0,40,0.00,,,0.00,weatherlink.com 1.10,2013-05-27 19:26:00,
2013-05-27 15:41:00,67.3,42.0,30.23,SSE,158,3.0,8.0,40,0.00,,,0.00,weatherlink.com 1.10,2013-05-27 19:41:00,
2013-05-27 15:56:00,66.4,41.0,30.22,WSW,237,3.0,10.0,39,0.00,,,0.00,weatherlink.com 1.10,2013-05-27 19:56:00,
2013-05-27 16:11:00,66.7,42.0,30.22,WSW,244,3.0,9.0,41,0.00,,,0.00,weatherlink.com 1.10,2013-05-27 20:11:00,
2013-05-27 16:26:00,67.0,42.0,30.22,SSW,208,3.0,7.0,41,0.00,,,0.00,weatherlink.com 1.10,2013-05-27 20:26:00,
2013-05-27 16:41:00,66.5,43.0,30.22,SW,233,4.0,8.0,42,0.00,,,0.00,weatherlink.com 1.10,2013-05-27 20:41:00,
2013-05-27 16:56:00,66.5,43.0,30.21,South,169,3.0,6.0,42,0.00,,,0.00,weatherlink.com 1.10,2013-05-27 20:56:00,
2013-05-27 17:11:00,66.3,42.0,30.21,SW,214,5.0,9.0,42,0.00,,,0.00,weatherlink.com 1.10,2013-05-27 21:11:00,
2013-05-27 17:26:00,66.1,42.0,30.21,South,175,5.0,7.0,42,0.00,,,0.00,weatherlink.com 1.10,2013-05-27 21:26:00,
2013-05-27 17:41:00,65.8,43.0,30.21,SW,231,0.0,5.0,44,0.00,,,0.00,weatherlink.com 1.10,2013-05-27 21:41:00,
2013-05-27 17:57:00,65.4,43.0,30.21,SW,225,0.0,6.0,45,0.00,,,0.00,weatherlink.com 1.10,2013-05-27 21:57:00,
2013-05-27 18:12:00,64.9,46.0,30.20,SSE,162,7.0,7.0,50,0.00,,,0.00,weatherlink.com 1.10,2013-05-27 22:12:00,
2013-05-27 18:27:00,63.9,46.0,30.20,WSW,248,2.0,4.0,53,0.00,,,0.00,weatherlink.com 1.10,2013-05-27 22:27:00,
2013-05-27 18:42:00,63.5,46.0,30.19,South,188,3.0,6.0,54,0.00,,,0.00,weatherlink.com 1.10,2013-05-27 22:42:00,
2013-05-27 18:57:00,63.4,47.0,30.19,SW,224,2.0,3.0,55,0.00,,,0.00,weatherlink.com 1.10,2013-05-27 22:57:00,
2013-05-27 19:12:00,63.1,47.0,30.20,South,188,2.0,4.0,56,0.00,,,0.00,weatherlink.com 1.10,2013-05-27 23:12:00,
2013-05-27 19:27:00,62.7,47.0,30.20,South,190,1.0,5.0,57,0.00,,,0.00,weatherlink.com 1.10,2013-05-27 23:27:00,
2013-05-27 19:42:00,62.5,48.0,30.20,West,277,1.0,3.0,59,0.00,,,0.00,weatherlink.com 1.10,2013-05-27 23:42:00,
2013-05-27 19:57:00,62.1,50.0,30.20,West,269,0.0,2.0,64,0.00,,,0.00,weatherlink.com 1.10,2013-05-27 23:57:00,
2013-05-27 20:12:00,61.6,48.0,30.21,SW,219,1.0,2.0,61,0.00,,,0.00,weatherlink.com 1.10,2013-05-28 00:12:00,
2013-05-27 20:27:00,61.4,49.0,30.20,WSW,245,0.0,1.0,63,0.00,,,0.00,weatherlink.com 1.10,2013-05-28 00:27:00,
2013-05-27 20:42:00,60.8,50.0,30.20,SW,219,1.0,1.0,68,0.00,,,0.00,weatherlink.com 1.10,2013-05-28 00:42:00,
2013-05-27 20:57:00,60.0,51.0,30.20,South,188,0.0,0.0,72,0.00,,,0.00,weatherlink.com 1.10,2013-05-28 00:57:00,
2013-05-27 21:12:00,59.2,51.0,30.20,ESE,111,1.0,1.0,73,0.00,,,0.00,weatherlink.com 1.10,2013-05-28 01:12:00,
2013-05-27 21:27:00,59.2,51.0,30.20,SE,139,1.0,3.0,73,0.00,,,0.00,weatherlink.com 1.10,2013-05-28 01:27:00,
2013-05-27 21:42:00,58.7,51.0,30.21,East,96,0.0,0.0,76,0.00,,,0.00,weatherlink.com 1.10,2013-05-28 01:42:00,
2013-05-27 21:57:00,58.4,51.0,30.20,ESE,118,0.0,1.0,77,0.00,,,0.00,weatherlink.com 1.10,2013-05-28 01:57:00,
2013-05-27 22:12:00,58.7,51.0,30.21,SSE,158,0.0,2.0,76,0.00,,,0.00,weatherlink.com 1.10,2013-05-28 02:12:00,
2013-05-27 22:27:00,58.4,52.0,30.21,ESE,110,1.0,1.0,78,0.00,,,0.00,weatherlink.com 1.10,2013-05-28 02:27:00,
2013-05-27 22:42:00,58.5,50.0,30.20,SSE,160,1.0,2.0,74,0.00,,,0.00,weatherlink.com 1.10,2013-05-28 02:42:00,
2013-05-27 22:57:00,58.4,51.0,30.22,SSE,163,0.0,1.0,76,0.00,,,0.00,weatherlink.com 1.10,2013-05-28 02:57:00,
2013-05-27 23:12:00,57.9,51.0,30.20,SSE,162,3.0,3.0,77,0.00,,,0.00,weatherlink.com 1.10,2013-05-28 03:12:00,
2013-05-27 23:27:00,58.6,49.0,30.19,South,183,4.0,13.0,70,0.00,,,0.00,weatherlink.com 1.10,2013-05-28 03:27:00,
2013-05-27 23:42:00,59.0,48.0,30.20,West,268,1.0,3.0,68,0.00,,,0.00,weatherlink.com 1.10,2013-05-28 03:42:00,
2013-05-27 23:57:00,58.2,48.0,30.21,NNW,330,1.0,2.0,70,0.00,,,0.00,weatherlink.com 1.10,2013-05-28 03:57:00,